sensor_id;sensor_type;location;lat;lon;timestamp;temperature;humidity
71084;DHT22;58741;52.672;13.548;2022-08-07T00:01:34;12.20;70.60
71084;DHT22;58741;52.672;13.548;2022-08-07T00:04:00;12.20;70.80
71084;DHT22;58741;52.672;13.548;2022-08-07T00:06:25;12.20;70.50
71084;DHT22;58741;52.672;13.548;2022-08-07T00:08:51;12.20;70.30
71084;DHT22;58741;52.672;13.548;2022-08-07T00:11:17;12.10;70.40
71084;DHT22;58741;52.672;13.548;2022-08-07T00:13:42;12.10;70.90
71084;DHT22;58741;52.672;13.548;2022-08-07T00:16:11;12.10;70.90
71084;DHT22;58741;52.672;13.548;2022-08-07T00:18:36;12.00;71.20
71084;DHT22;58741;52.672;13.548;2022-08-07T00:21:05;12.00;71.40
71084;DHT22;58741;52.672;13.548;2022-08-07T00:23:32;12.00;71.30
71084;DHT22;58741;52.672;13.548;2022-08-07T00:26:02;12.00;71.40
71084;DHT22;58741;52.672;13.548;2022-08-07T00:28:30;11.90;71.30
71084;DHT22;58741;52.672;13.548;2022-08-07T00:30:55;11.90;71.80
71084;DHT22;58741;52.672;13.548;2022-08-07T00:33:21;11.90;71.20
71084;DHT22;58741;52.672;13.548;2022-08-07T00:35:51;11.90;71.50
71084;DHT22;58741;52.672;13.548;2022-08-07T00:38:17;11.90;71.70
71084;DHT22;58741;52.672;13.548;2022-08-07T00:40:42;11.80;71.80
71084;DHT22;58741;52.672;13.548;2022-08-07T00:43:09;11.80;71.60
71084;DHT22;58741;52.672;13.548;2022-08-07T00:45:35;11.80;71.60
71084;DHT22;58741;52.672;13.548;2022-08-07T00:48:00;11.70;72.00
71084;DHT22;58741;52.672;13.548;2022-08-07T00:50:26;11.70;72.40
71084;DHT22;58741;52.672;13.548;2022-08-07T00:52:52;11.70;72.50
71084;DHT22;58741;52.672;13.548;2022-08-07T00:55:17;11.70;72.60
71084;DHT22;58741;52.672;13.548;2022-08-07T00:57:43;11.60;72.30
71084;DHT22;58741;52.672;13.548;2022-08-07T01:00:09;11.60;72.50
71084;DHT22;58741;52.672;13.548;2022-08-07T01:02:34;11.60;72.80
71084;DHT22;58741;52.672;13.548;2022-08-07T01:05:01;11.50;72.80
71084;DHT22;58741;52.672;13.548;2022-08-07T01:07:30;11.50;73.00
71084;DHT22;58741;52.672;13.548;2022-08-07T01:09:56;11.50;73.20
71084;DHT22;58741;52.672;13.548;2022-08-07T01:12:22;11.50;73.20
71084;DHT22;58741;52.672;13.548;2022-08-07T01:14:47;11.40;73.30
71084;DHT22;58741;52.672;13.548;2022-08-07T01:17:13;11.40;73.50
71084;DHT22;58741;52.672;13.548;2022-08-07T01:19:38;11.40;73.50
71084;DHT22;58741;52.672;13.548;2022-08-07T01:22:04;11.30;73.40
71084;DHT22;58741;52.672;13.548;2022-08-07T01:24:31;11.30;73.10
71084;DHT22;58741;52.672;13.548;2022-08-07T01:26:59;11.30;73.70
71084;DHT22;58741;52.672;13.548;2022-08-07T01:29:26;11.30;73.80
71084;DHT22;58741;52.672;13.548;2022-08-07T01:31:52;11.20;73.70
71084;DHT22;58741;52.672;13.548;2022-08-07T01:34:18;11.20;73.50
71084;DHT22;58741;52.672;13.548;2022-08-07T01:36:46;11.20;73.20
71084;DHT22;58741;52.672;13.548;2022-08-07T01:39:13;11.10;73.20
71084;DHT22;58741;52.672;13.548;2022-08-07T01:41:38;11.10;73.30
71084;DHT22;58741;52.672;13.548;2022-08-07T01:44:05;11.10;73.90
71084;DHT22;58741;52.672;13.548;2022-08-07T01:46:30;11.10;74.20
71084;DHT22;58741;52.672;13.548;2022-08-07T01:48:56;11.10;74.50
71084;DHT22;58741;52.672;13.548;2022-08-07T01:51:24;11.00;74.20
71084;DHT22;58741;52.672;13.548;2022-08-07T01:53:54;11.00;74.70
71084;DHT22;58741;52.672;13.548;2022-08-07T01:56:35;11.00;75.10
71084;DHT22;58741;52.672;13.548;2022-08-07T01:59:14;11.00;74.20
71084;DHT22;58741;52.672;13.548;2022-08-07T02:01:44;10.90;75.10
71084;DHT22;58741;52.672;13.548;2022-08-07T02:04:14;10.90;75.30
71084;DHT22;58741;52.672;13.548;2022-08-07T02:06:42;10.90;75.40
71084;DHT22;58741;52.672;13.548;2022-08-07T02:09:11;10.90;75.10
71084;DHT22;58741;52.672;13.548;2022-08-07T02:11:41;10.80;74.90
71084;DHT22;58741;52.672;13.548;2022-08-07T02:14:08;10.80;74.90
71084;DHT22;58741;52.672;13.548;2022-08-07T02:16:36;10.80;75.10
71084;DHT22;58741;52.672;13.548;2022-08-07T02:19:05;10.80;75.30
71084;DHT22;58741;52.672;13.548;2022-08-07T02:21:33;10.80;75.30
71084;DHT22;58741;52.672;13.548;2022-08-07T02:24:00;10.80;75.40
71084;DHT22;58741;52.672;13.548;2022-08-07T02:26:27;10.70;75.50
71084;DHT22;58741;52.672;13.548;2022-08-07T02:28:53;10.80;75.20
71084;DHT22;58741;52.672;13.548;2022-08-07T02:31:20;10.70;75.10
71084;DHT22;58741;52.672;13.548;2022-08-07T02:33:48;10.70;75.70
71084;DHT22;58741;52.672;13.548;2022-08-07T02:36:15;10.70;75.70
71084;DHT22;58741;52.672;13.548;2022-08-07T02:38:42;10.70;75.40
71084;DHT22;58741;52.672;13.548;2022-08-07T02:41:08;10.60;75.10
71084;DHT22;58741;52.672;13.548;2022-08-07T02:43:35;10.60;75.60
71084;DHT22;58741;52.672;13.548;2022-08-07T02:46:03;10.60;76.20
71084;DHT22;58741;52.672;13.548;2022-08-07T02:48:30;10.60;76.30
71084;DHT22;58741;52.672;13.548;2022-08-07T02:50:56;10.60;76.50
71084;DHT22;58741;52.672;13.548;2022-08-07T02:53:32;10.50;76.20
71084;DHT22;58741;52.672;13.548;2022-08-07T02:55:59;10.50;75.70
71084;DHT22;58741;52.672;13.548;2022-08-07T02:58:26;10.50;75.50
71084;DHT22;58741;52.672;13.548;2022-08-07T03:00:54;10.50;75.20
71084;DHT22;58741;52.672;13.548;2022-08-07T03:03:21;10.40;75.90
71084;DHT22;58741;52.672;13.548;2022-08-07T03:05:49;10.40;76.70
71084;DHT22;58741;52.672;13.548;2022-08-07T03:08:15;10.40;76.00
71084;DHT22;58741;52.672;13.548;2022-08-07T03:10:43;10.40;76.70
71084;DHT22;58741;52.672;13.548;2022-08-07T03:13:10;10.40;76.50
71084;DHT22;58741;52.672;13.548;2022-08-07T03:15:36;10.40;76.10
71084;DHT22;58741;52.672;13.548;2022-08-07T03:18:02;10.40;76.60
71084;DHT22;58741;52.672;13.548;2022-08-07T03:20:28;10.30;76.20
71084;DHT22;58741;52.672;13.548;2022-08-07T03:22:54;10.30;76.30
71084;DHT22;58741;52.672;13.548;2022-08-07T03:25:20;10.30;77.00
71084;DHT22;58741;52.672;13.548;2022-08-07T03:27:48;10.30;76.70
71084;DHT22;58741;52.672;13.548;2022-08-07T03:30:15;10.30;76.70
71084;DHT22;58741;52.672;13.548;2022-08-07T03:32:42;10.20;76.90
71084;DHT22;58741;52.672;13.548;2022-08-07T03:35:20;10.20;76.90
71084;DHT22;58741;52.672;13.548;2022-08-07T03:37:53;10.20;76.90
71084;DHT22;58741;52.672;13.548;2022-08-07T03:40:22;10.20;77.50
71084;DHT22;58741;52.672;13.548;2022-08-07T03:42:52;10.10;77.20
71084;DHT22;58741;52.672;13.548;2022-08-07T03:45:20;10.20;76.90
71084;DHT22;58741;52.672;13.548;2022-08-07T03:47:47;10.10;76.90
71084;DHT22;58741;52.672;13.548;2022-08-07T03:50:13;10.10;77.50
71084;DHT22;58741;52.672;13.548;2022-08-07T03:52:40;10.10;77.40
71084;DHT22;58741;52.672;13.548;2022-08-07T03:55:06;10.10;77.10
71084;DHT22;58741;52.672;13.548;2022-08-07T03:57:32;10.10;77.90
71084;DHT22;58741;52.672;13.548;2022-08-07T04:00:00;10.10;77.90
71084;DHT22;58741;52.672;13.548;2022-08-07T04:02:26;10.10;77.40
71084;DHT22;58741;52.672;13.548;2022-08-07T04:04:52;10.10;77.70
71084;DHT22;58741;52.672;13.548;2022-08-07T04:07:18;10.10;78.10
71084;DHT22;58741;52.672;13.548;2022-08-07T04:09:48;10.10;78.30
71084;DHT22;58741;52.672;13.548;2022-08-07T04:12:14;10.10;78.00
71084;DHT22;58741;52.672;13.548;2022-08-07T04:14:41;10.10;77.70
71084;DHT22;58741;52.672;13.548;2022-08-07T04:17:08;10.10;77.70
71084;DHT22;58741;52.672;13.548;2022-08-07T04:19:34;10.10;78.40
71084;DHT22;58741;52.672;13.548;2022-08-07T04:22:00;10.10;77.20
71084;DHT22;58741;52.672;13.548;2022-08-07T04:24:26;10.10;77.30
71084;DHT22;58741;52.672;13.548;2022-08-07T04:26:52;10.10;77.00
71084;DHT22;58741;52.672;13.548;2022-08-07T04:29:18;10.10;77.20
71084;DHT22;58741;52.672;13.548;2022-08-07T04:31:44;10.10;77.10
71084;DHT22;58741;52.672;13.548;2022-08-07T04:34:10;10.10;77.50
71084;DHT22;58741;52.672;13.548;2022-08-07T04:36:35;10.10;76.80
71084;DHT22;58741;52.672;13.548;2022-08-07T04:39:03;10.10;77.70
71084;DHT22;58741;52.672;13.548;2022-08-07T04:41:29;10.20;77.10
71084;DHT22;58741;52.672;13.548;2022-08-07T04:43:55;10.20;78.30
71084;DHT22;58741;52.672;13.548;2022-08-07T04:46:32;10.30;77.90
71084;DHT22;58741;52.672;13.548;2022-08-07T04:49:13;10.30;76.90
71084;DHT22;58741;52.672;13.548;2022-08-07T04:52:09;10.30;78.70
71084;DHT22;58741;52.672;13.548;2022-08-07T04:54:56;10.40;79.10
71084;DHT22;58741;52.672;13.548;2022-08-07T04:57:52;10.40;80.10
71084;DHT22;58741;52.672;13.548;2022-08-07T05:00:28;10.50;80.20
71084;DHT22;58741;52.672;13.548;2022-08-07T05:03:13;10.50;81.50
71084;DHT22;58741;52.672;13.548;2022-08-07T05:06:00;10.60;81.60
71084;DHT22;58741;52.672;13.548;2022-08-07T05:11:12;10.70;82.60
71084;DHT22;58741;52.672;13.548;2022-08-07T05:16:25;10.90;83.70
71084;DHT22;58741;52.672;13.548;2022-08-07T05:18:59;11.00;83.90
71084;DHT22;58741;52.672;13.548;2022-08-07T05:21:27;11.10;83.70
71084;DHT22;58741;52.672;13.548;2022-08-07T05:23:57;11.20;84.20
71084;DHT22;58741;52.672;13.548;2022-08-07T05:26:25;11.30;83.20
71084;DHT22;58741;52.672;13.548;2022-08-07T05:28:54;11.40;83.80
71084;DHT22;58741;52.672;13.548;2022-08-07T05:31:23;11.60;83.90
71084;DHT22;58741;52.672;13.548;2022-08-07T05:33:51;11.80;83.70
71084;DHT22;58741;52.672;13.548;2022-08-07T05:36:18;11.90;83.70
71084;DHT22;58741;52.672;13.548;2022-08-07T05:38:45;12.20;83.90
71084;DHT22;58741;52.672;13.548;2022-08-07T05:41:11;12.40;83.10
71084;DHT22;58741;52.672;13.548;2022-08-07T05:43:38;12.60;82.10
71084;DHT22;58741;52.672;13.548;2022-08-07T05:46:05;12.80;80.30
71084;DHT22;58741;52.672;13.548;2022-08-07T05:48:31;13.10;78.70
71084;DHT22;58741;52.672;13.548;2022-08-07T05:50:58;13.40;78.90
71084;DHT22;58741;52.672;13.548;2022-08-07T05:53:26;13.60;77.70
71084;DHT22;58741;52.672;13.548;2022-08-07T05:55:52;13.90;76.20
71084;DHT22;58741;52.672;13.548;2022-08-07T05:58:20;14.20;75.00
71084;DHT22;58741;52.672;13.548;2022-08-07T06:00:47;14.40;73.90
71084;DHT22;58741;52.672;13.548;2022-08-07T06:03:15;14.70;73.30
71084;DHT22;58741;52.672;13.548;2022-08-07T06:05:44;14.90;72.40
71084;DHT22;58741;52.672;13.548;2022-08-07T06:08:10;15.10;72.20
71084;DHT22;58741;52.672;13.548;2022-08-07T06:10:36;15.40;71.00
71084;DHT22;58741;52.672;13.548;2022-08-07T06:13:02;15.60;70.10
71084;DHT22;58741;52.672;13.548;2022-08-07T06:15:28;15.80;69.60
71084;DHT22;58741;52.672;13.548;2022-08-07T06:17:54;16.00;68.00
71084;DHT22;58741;52.672;13.548;2022-08-07T06:20:21;16.20;68.00
71084;DHT22;58741;52.672;13.548;2022-08-07T06:22:48;16.40;67.70
71084;DHT22;58741;52.672;13.548;2022-08-07T06:25:13;16.60;67.20
71084;DHT22;58741;52.672;13.548;2022-08-07T06:27:39;16.80;67.60
71084;DHT22;58741;52.672;13.548;2022-08-07T06:30:05;17.00;66.10
71084;DHT22;58741;52.672;13.548;2022-08-07T06:32:31;17.20;64.40
71084;DHT22;58741;52.672;13.548;2022-08-07T06:34:58;17.40;64.60
71084;DHT22;58741;52.672;13.548;2022-08-07T06:37:24;17.60;65.50
71084;DHT22;58741;52.672;13.548;2022-08-07T06:39:49;17.80;63.60
71084;DHT22;58741;52.672;13.548;2022-08-07T06:42:20;18.00;62.20
71084;DHT22;58741;52.672;13.548;2022-08-07T06:44:48;18.20;63.10
71084;DHT22;58741;52.672;13.548;2022-08-07T06:47:15;18.40;61.70
71084;DHT22;58741;52.672;13.548;2022-08-07T06:49:42;18.60;61.90
71084;DHT22;58741;52.672;13.548;2022-08-07T06:52:09;18.90;60.90
71084;DHT22;58741;52.672;13.548;2022-08-07T06:54:37;19.00;59.10
71084;DHT22;58741;52.672;13.548;2022-08-07T06:57:04;19.20;58.70
71084;DHT22;58741;52.672;13.548;2022-08-07T06:59:41;19.40;58.90
71084;DHT22;58741;52.672;13.548;2022-08-07T07:02:15;19.60;58.00
71084;DHT22;58741;52.672;13.548;2022-08-07T07:04:43;19.80;57.40
71084;DHT22;58741;52.672;13.548;2022-08-07T07:07:09;19.90;56.00
71084;DHT22;58741;52.672;13.548;2022-08-07T07:09:34;20.10;56.90
71084;DHT22;58741;52.672;13.548;2022-08-07T07:14:35;20.50;55.40
71084;DHT22;58741;52.672;13.548;2022-08-07T07:17:05;20.60;55.10
71084;DHT22;58741;52.672;13.548;2022-08-07T07:19:39;20.80;54.60
71084;DHT22;58741;52.672;13.548;2022-08-07T07:22:08;20.90;53.70
71084;DHT22;58741;52.672;13.548;2022-08-07T07:24:34;21.10;54.50
71084;DHT22;58741;52.672;13.548;2022-08-07T07:27:02;21.20;52.00
71084;DHT22;58741;52.672;13.548;2022-08-07T07:29:33;21.30;53.00
71084;DHT22;58741;52.672;13.548;2022-08-07T07:32:01;21.40;52.70
71084;DHT22;58741;52.672;13.548;2022-08-07T07:34:29;21.50;50.90
71084;DHT22;58741;52.672;13.548;2022-08-07T07:36:58;21.70;50.50
71084;DHT22;58741;52.672;13.548;2022-08-07T07:39:25;21.80;51.30
71084;DHT22;58741;52.672;13.548;2022-08-07T07:41:52;21.90;50.30
71084;DHT22;58741;52.672;13.548;2022-08-07T07:44:19;22.00;50.80
71084;DHT22;58741;52.672;13.548;2022-08-07T07:46:47;22.10;47.20
71084;DHT22;58741;52.672;13.548;2022-08-07T07:49:15;22.20;46.50
71084;DHT22;58741;52.672;13.548;2022-08-07T07:51:43;22.30;47.00
71084;DHT22;58741;52.672;13.548;2022-08-07T07:54:10;22.40;47.90
71084;DHT22;58741;52.672;13.548;2022-08-07T07:56:39;22.50;48.60
71084;DHT22;58741;52.672;13.548;2022-08-07T07:59:06;22.60;49.80
71084;DHT22;58741;52.672;13.548;2022-08-07T08:01:33;22.80;49.10
71084;DHT22;58741;52.672;13.548;2022-08-07T08:04:02;22.90;49.10
71084;DHT22;58741;52.672;13.548;2022-08-07T08:06:28;23.00;48.50
71084;DHT22;58741;52.672;13.548;2022-08-07T08:08:56;23.10;45.10
71084;DHT22;58741;52.672;13.548;2022-08-07T08:11:23;23.20;48.40
71084;DHT22;58741;52.672;13.548;2022-08-07T08:13:49;23.20;46.30
71084;DHT22;58741;52.672;13.548;2022-08-07T08:16:18;23.30;47.40
71084;DHT22;58741;52.672;13.548;2022-08-07T08:18:45;23.40;46.50
71084;DHT22;58741;52.672;13.548;2022-08-07T08:21:14;23.50;45.00
71084;DHT22;58741;52.672;13.548;2022-08-07T08:24:03;23.60;46.20
71084;DHT22;58741;52.672;13.548;2022-08-07T08:26:50;23.70;44.60
71084;DHT22;58741;52.672;13.548;2022-08-07T08:29:37;23.70;45.20
71084;DHT22;58741;52.672;13.548;2022-08-07T08:32:04;23.80;45.90
71084;DHT22;58741;52.672;13.548;2022-08-07T08:34:31;23.80;44.20
71084;DHT22;58741;52.672;13.548;2022-08-07T08:36:59;23.90;45.20
71084;DHT22;58741;52.672;13.548;2022-08-07T08:39:27;24.00;43.90
71084;DHT22;58741;52.672;13.548;2022-08-07T08:42:03;24.00;43.30
71084;DHT22;58741;52.672;13.548;2022-08-07T08:44:40;24.00;43.10
71084;DHT22;58741;52.672;13.548;2022-08-07T08:49:59;24.20;45.30
71084;DHT22;58741;52.672;13.548;2022-08-07T08:52:43;24.30;44.40
71084;DHT22;58741;52.672;13.548;2022-08-07T08:55:36;24.40;44.90
71084;DHT22;58741;52.672;13.548;2022-08-07T08:58:11;24.40;42.00
71084;DHT22;58741;52.672;13.548;2022-08-07T09:00:48;24.50;44.80
71084;DHT22;58741;52.672;13.548;2022-08-07T09:03:34;24.60;41.60
71084;DHT22;58741;52.672;13.548;2022-08-07T09:06:51;24.60;44.00
71084;DHT22;58741;52.672;13.548;2022-08-07T09:09:41;24.60;44.60
71084;DHT22;58741;52.672;13.548;2022-08-07T09:20:53;24.80;42.40
71084;DHT22;58741;52.672;13.548;2022-08-07T09:24:12;24.80;41.60
71084;DHT22;58741;52.672;13.548;2022-08-07T09:29:32;24.70;40.80
71084;DHT22;58741;52.672;13.548;2022-08-07T09:35:34;24.50;42.50
71084;DHT22;58741;52.672;13.548;2022-08-07T09:40:55;24.40;42.20
71084;DHT22;58741;52.672;13.548;2022-08-07T09:43:55;24.30;43.20
71084;DHT22;58741;52.672;13.548;2022-08-07T09:46:33;24.20;43.70
71084;DHT22;58741;52.672;13.548;2022-08-07T09:49:17;24.20;42.90
71084;DHT22;58741;52.672;13.548;2022-08-07T09:52:05;24.10;42.00
71084;DHT22;58741;52.672;13.548;2022-08-07T09:54:40;24.00;43.00
71084;DHT22;58741;52.672;13.548;2022-08-07T10:00:09;23.70;42.40
71084;DHT22;58741;52.672;13.548;2022-08-07T10:06:02;23.50;44.10
71084;DHT22;58741;52.672;13.548;2022-08-07T10:09:03;23.40;44.60
71084;DHT22;58741;52.672;13.548;2022-08-07T10:17:47;23.70;43.20
71084;DHT22;58741;52.672;13.548;2022-08-07T10:26:16;24.10;42.70
71084;DHT22;58741;52.672;13.548;2022-08-07T10:29:31;24.20;42.60
71084;DHT22;58741;52.672;13.548;2022-08-07T10:32:35;24.40;42.70
71084;DHT22;58741;52.672;13.548;2022-08-07T10:35:36;24.60;43.40
71084;DHT22;58741;52.672;13.548;2022-08-07T10:41:39;25.00;41.70
71084;DHT22;58741;52.672;13.548;2022-08-07T10:44:32;25.10;41.50
71084;DHT22;58741;52.672;13.548;2022-08-07T10:49:43;25.40;40.10
71084;DHT22;58741;52.672;13.548;2022-08-07T10:52:20;25.40;41.40
71084;DHT22;58741;52.672;13.548;2022-08-07T10:57:55;25.70;41.80
71084;DHT22;58741;52.672;13.548;2022-08-07T11:00:30;25.80;40.20
71084;DHT22;58741;52.672;13.548;2022-08-07T11:03:21;25.90;38.60
71084;DHT22;58741;52.672;13.548;2022-08-07T11:05:54;25.90;40.50
71084;DHT22;58741;52.672;13.548;2022-08-07T11:08:45;25.80;39.30
71084;DHT22;58741;52.672;13.548;2022-08-07T11:14:19;25.60;39.20
71084;DHT22;58741;52.672;13.548;2022-08-07T11:16:51;25.50;39.90
71084;DHT22;58741;52.672;13.548;2022-08-07T11:22:18;25.40;38.10
71084;DHT22;58741;52.672;13.548;2022-08-07T11:27:44;25.60;38.20
71084;DHT22;58741;52.672;13.548;2022-08-07T11:30:17;25.60;40.40
71084;DHT22;58741;52.672;13.548;2022-08-07T11:32:57;25.60;37.70
71084;DHT22;58741;52.672;13.548;2022-08-07T11:35:53;25.70;37.70
71084;DHT22;58741;52.672;13.548;2022-08-07T11:39:03;25.80;38.70
71084;DHT22;58741;52.672;13.548;2022-08-07T11:41:37;25.90;38.40
71084;DHT22;58741;52.672;13.548;2022-08-07T11:44:21;25.80;38.40
71084;DHT22;58741;52.672;13.548;2022-08-07T11:47:03;25.80;39.00
71084;DHT22;58741;52.672;13.548;2022-08-07T11:49:51;25.70;39.00
71084;DHT22;58741;52.672;13.548;2022-08-07T11:55:13;25.40;38.70
71084;DHT22;58741;52.672;13.548;2022-08-07T11:57:48;25.30;38.30
71084;DHT22;58741;52.672;13.548;2022-08-07T12:00:32;25.20;38.40
71084;DHT22;58741;52.672;13.548;2022-08-07T12:03:35;25.10;39.50
71084;DHT22;58741;52.672;13.548;2022-08-07T12:09:06;25.10;40.40
71084;DHT22;58741;52.672;13.548;2022-08-07T12:11:45;25.20;39.60
71084;DHT22;58741;52.672;13.548;2022-08-07T12:14:22;25.30;39.80
71084;DHT22;58741;52.672;13.548;2022-08-07T12:17:07;25.40;38.20
71084;DHT22;58741;52.672;13.548;2022-08-07T12:19:52;25.60;39.20
71084;DHT22;58741;52.672;13.548;2022-08-07T12:25:35;25.60;40.00
71084;DHT22;58741;52.672;13.548;2022-08-07T12:31:02;25.50;38.90
71084;DHT22;58741;52.672;13.548;2022-08-07T12:33:30;25.50;39.00
71084;DHT22;58741;52.672;13.548;2022-08-07T12:35:57;25.40;37.70
71084;DHT22;58741;52.672;13.548;2022-08-07T12:38:23;25.40;38.00
71084;DHT22;58741;52.672;13.548;2022-08-07T12:40:51;25.30;39.10
71084;DHT22;58741;52.672;13.548;2022-08-07T12:43:22;25.20;39.00
71084;DHT22;58741;52.672;13.548;2022-08-07T12:51:40;24.90;39.50
71084;DHT22;58741;52.672;13.548;2022-08-07T12:54:24;24.80;39.10
71084;DHT22;58741;52.672;13.548;2022-08-07T12:56:53;24.80;37.90
71084;DHT22;58741;52.672;13.548;2022-08-07T12:59:22;24.80;38.80
71084;DHT22;58741;52.672;13.548;2022-08-07T13:02:11;24.70;39.60
71084;DHT22;58741;52.672;13.548;2022-08-07T13:19:21;25.30;38.10
71084;DHT22;58741;52.672;13.548;2022-08-07T13:24:39;25.50;37.50
71084;DHT22;58741;52.672;13.548;2022-08-07T13:27:07;25.50;36.80
71084;DHT22;58741;52.672;13.548;2022-08-07T13:29:43;25.50;38.30
71084;DHT22;58741;52.672;13.548;2022-08-07T13:32:24;25.30;37.60
71084;DHT22;58741;52.672;13.548;2022-08-07T13:35:06;25.20;37.80
71084;DHT22;58741;52.672;13.548;2022-08-07T13:37:51;25.10;38.50
71084;DHT22;58741;52.672;13.548;2022-08-07T13:40:31;25.10;39.10
71084;DHT22;58741;52.672;13.548;2022-08-07T13:43:04;25.00;39.00
71084;DHT22;58741;52.672;13.548;2022-08-07T13:45:33;24.90;39.00
71084;DHT22;58741;52.672;13.548;2022-08-07T13:48:02;24.80;37.00
71084;DHT22;58741;52.672;13.548;2022-08-07T13:50:29;24.80;38.30
71084;DHT22;58741;52.672;13.548;2022-08-07T13:52:55;24.70;38.10
71084;DHT22;58741;52.672;13.548;2022-08-07T13:55:23;24.60;36.50
71084;DHT22;58741;52.672;13.548;2022-08-07T13:58:05;24.60;37.80
71084;DHT22;58741;52.672;13.548;2022-08-07T14:00:51;24.50;37.90
71084;DHT22;58741;52.672;13.548;2022-08-07T14:03:19;24.40;39.00
71084;DHT22;58741;52.672;13.548;2022-08-07T14:05:46;24.40;39.10
71084;DHT22;58741;52.672;13.548;2022-08-07T14:08:12;24.30;39.50
71084;DHT22;58741;52.672;13.548;2022-08-07T14:10:40;24.30;40.70
71084;DHT22;58741;52.672;13.548;2022-08-07T14:13:07;24.20;41.00
71084;DHT22;58741;52.672;13.548;2022-08-07T14:15:37;24.20;40.50
71084;DHT22;58741;52.672;13.548;2022-08-07T14:18:06;24.20;40.40
71084;DHT22;58741;52.672;13.548;2022-08-07T14:20:36;24.20;40.30
71084;DHT22;58741;52.672;13.548;2022-08-07T14:23:15;24.20;40.20
71084;DHT22;58741;52.672;13.548;2022-08-07T14:25:43;24.20;41.60
71084;DHT22;58741;52.672;13.548;2022-08-07T14:28:13;24.30;44.00
71084;DHT22;58741;52.672;13.548;2022-08-07T14:30:45;24.40;40.50
71084;DHT22;58741;52.672;13.548;2022-08-07T14:33:11;24.50;39.90
71084;DHT22;58741;52.672;13.548;2022-08-07T14:35:38;24.60;37.30
71084;DHT22;58741;52.672;13.548;2022-08-07T14:38:05;24.80;39.00
71084;DHT22;58741;52.672;13.548;2022-08-07T14:40:32;24.80;38.90
71084;DHT22;58741;52.672;13.548;2022-08-07T14:43:04;25.00;39.10
71084;DHT22;58741;52.672;13.548;2022-08-07T14:45:34;25.10;38.90
71084;DHT22;58741;52.672;13.548;2022-08-07T14:48:06;25.20;36.10
71084;DHT22;58741;52.672;13.548;2022-08-07T14:50:32;25.30;36.20
71084;DHT22;58741;52.672;13.548;2022-08-07T14:53:00;25.30;37.20
71084;DHT22;58741;52.672;13.548;2022-08-07T14:55:33;25.40;37.10
71084;DHT22;58741;52.672;13.548;2022-08-07T14:57:58;25.50;37.30
71084;DHT22;58741;52.672;13.548;2022-08-07T15:00:30;25.50;36.30
71084;DHT22;58741;52.672;13.548;2022-08-07T15:03:01;25.60;37.60
71084;DHT22;58741;52.672;13.548;2022-08-07T15:05:28;25.60;37.60
71084;DHT22;58741;52.672;13.548;2022-08-07T15:07:55;25.70;37.00
71084;DHT22;58741;52.672;13.548;2022-08-07T15:10:23;25.80;37.20
71084;DHT22;58741;52.672;13.548;2022-08-07T15:12:55;25.90;36.60
71084;DHT22;58741;52.672;13.548;2022-08-07T15:15:28;25.90;36.30
71084;DHT22;58741;52.672;13.548;2022-08-07T15:17:58;26.00;35.80
71084;DHT22;58741;52.672;13.548;2022-08-07T15:20:30;26.10;38.10
71084;DHT22;58741;52.672;13.548;2022-08-07T15:22:57;26.10;36.90
71084;DHT22;58741;52.672;13.548;2022-08-07T15:25:32;26.30;37.20
71084;DHT22;58741;52.672;13.548;2022-08-07T15:28:00;26.40;37.80
71084;DHT22;58741;52.672;13.548;2022-08-07T15:30:27;26.50;36.50
71084;DHT22;58741;52.672;13.548;2022-08-07T15:32:55;26.60;36.70
71084;DHT22;58741;52.672;13.548;2022-08-07T15:35:24;26.70;35.90
71084;DHT22;58741;52.672;13.548;2022-08-07T15:37:56;26.80;35.20
71084;DHT22;58741;52.672;13.548;2022-08-07T15:40:24;26.90;36.30
71084;DHT22;58741;52.672;13.548;2022-08-07T15:42:56;26.90;34.70
71084;DHT22;58741;52.672;13.548;2022-08-07T15:47:52;26.80;34.60
71084;DHT22;58741;52.672;13.548;2022-08-07T15:50:27;26.70;34.90
71084;DHT22;58741;52.672;13.548;2022-08-07T15:52:58;26.70;34.90
71084;DHT22;58741;52.672;13.548;2022-08-07T15:55:25;26.70;36.10
71084;DHT22;58741;52.672;13.548;2022-08-07T15:57:52;26.80;35.10
71084;DHT22;58741;52.672;13.548;2022-08-07T16:00:20;26.80;35.20
71084;DHT22;58741;52.672;13.548;2022-08-07T16:02:48;26.70;35.60
71084;DHT22;58741;52.672;13.548;2022-08-07T16:05:18;26.60;33.60
71084;DHT22;58741;52.672;13.548;2022-08-07T16:07:55;26.50;34.20
71084;DHT22;58741;52.672;13.548;2022-08-07T16:10:25;26.50;35.20
71084;DHT22;58741;52.672;13.548;2022-08-07T16:13:29;26.30;34.80
71084;DHT22;58741;52.672;13.548;2022-08-07T16:19:13;26.10;35.60
71084;DHT22;58741;52.672;13.548;2022-08-07T16:21:46;26.00;35.50
71084;DHT22;58741;52.672;13.548;2022-08-07T16:24:37;25.90;35.30
71084;DHT22;58741;52.672;13.548;2022-08-07T16:27:07;25.80;36.30
71084;DHT22;58741;52.672;13.548;2022-08-07T16:32:31;25.50;35.80
71084;DHT22;58741;52.672;13.548;2022-08-07T16:38:05;25.30;36.00
71084;DHT22;58741;52.672;13.548;2022-08-07T16:49:19;25.00;36.80
71084;DHT22;58741;52.672;13.548;2022-08-07T16:52:08;24.90;36.70
71084;DHT22;58741;52.672;13.548;2022-08-07T16:57:28;24.80;37.30
71084;DHT22;58741;52.672;13.548;2022-08-07T16:59:57;24.80;36.90
71084;DHT22;58741;52.672;13.548;2022-08-07T17:07:52;24.60;37.10
71084;DHT22;58741;52.672;13.548;2022-08-07T17:13:46;24.40;38.20
71084;DHT22;58741;52.672;13.548;2022-08-07T17:15:56;24.30;37.40
71084;DHT22;58741;52.672;13.548;2022-08-07T17:21:21;24.20;37.70
71084;DHT22;58741;52.672;13.548;2022-08-07T17:24:16;24.10;37.10
71084;DHT22;58741;52.672;13.548;2022-08-07T17:26:53;24.00;38.60
71084;DHT22;58741;52.672;13.548;2022-08-07T17:32:06;23.80;37.70
71084;DHT22;58741;52.672;13.548;2022-08-07T17:34:39;23.70;38.60
71084;DHT22;58741;52.672;13.548;2022-08-07T17:37:17;23.70;38.70
71084;DHT22;58741;52.672;13.548;2022-08-07T17:39:54;23.60;38.70
71084;DHT22;58741;52.672;13.548;2022-08-07T17:42:38;23.50;38.50
71084;DHT22;58741;52.672;13.548;2022-08-07T17:45:19;23.40;39.20
71084;DHT22;58741;52.672;13.548;2022-08-07T17:50:17;23.30;40.00
71084;DHT22;58741;52.672;13.548;2022-08-07T17:52:53;23.20;40.20
71084;DHT22;58741;52.672;13.548;2022-08-07T17:58:16;23.10;40.60
71084;DHT22;58741;52.672;13.548;2022-08-07T18:00:46;23.00;40.70
71084;DHT22;58741;52.672;13.548;2022-08-07T18:03:24;22.90;40.70
71084;DHT22;58741;52.672;13.548;2022-08-07T18:06:05;22.90;40.40